createdAt,value
2018-07-08T00:02:49.751Z,100823.66
2018-07-08T00:06:01.123Z,100827.89
2018-07-08T00:09:09.585Z,100825.38
2018-07-08T00:12:16.428Z,100824.11
2018-07-08T00:15:20.268Z,100819.96
2018-07-08T00:18:28.222Z,100817.55
2018-07-08T00:21:34.092Z,100823.19
2018-07-08T00:24:39.757Z,100821.06
2018-07-08T00:27:45.895Z,100825.80
2018-07-08T00:30:51.094Z,100821.45
2018-07-08T00:33:55.169Z,100825.33
2018-07-08T00:36:59.639Z,100822.84
2018-07-08T00:43:23.590Z,100824.86
2018-07-08T00:46:29.132Z,100828.86
2018-07-08T00:49:38.286Z,100830.60
2018-07-08T00:52:59.982Z,100825.87
2018-07-08T00:56:19.029Z,100830.19
2018-07-08T00:59:27.179Z,100833.77
2018-07-08T01:02:47.941Z,100829.45
2018-07-08T01:06:03.628Z,100832.41
2018-07-08T01:09:10.112Z,100837.08
2018-07-08T01:15:54.374Z,100842.95
2018-07-08T01:19:09.432Z,100838.75
2018-07-08T01:22:21.627Z,100834.44
2018-07-08T01:25:42.384Z,100843.34
2018-07-08T01:28:53.859Z,100844.45
2018-07-08T01:32:07.870Z,100838.09
2018-07-08T01:38:38.715Z,100854.63
2018-07-08T01:41:45.715Z,100858.47
2018-07-08T01:44:51.706Z,100859.88
2018-07-08T01:47:58.590Z,100864.02
2018-07-08T01:51:07.206Z,100861.34
2018-07-08T01:54:27.019Z,100864.37
2018-07-08T01:57:35.111Z,100863.97
2018-07-08T02:00:43.876Z,100864.44
2018-07-08T02:03:47.925Z,100866.97
2018-07-08T02:07:04.201Z,100860.56
2018-07-08T02:10:09.641Z,100859.89
2018-07-08T02:13:19.218Z,100861.50
2018-07-08T02:16:31.550Z,100863.42
2018-07-08T02:19:37.819Z,100866.72
2018-07-08T02:22:42.916Z,100865.58
2018-07-08T02:25:46.949Z,100870.98
2018-07-08T02:28:51.605Z,100872.39
2018-07-08T02:32:02.390Z,100868.38
2018-07-08T02:35:10.581Z,100867.03
2018-07-08T02:38:25.098Z,100872.43
2018-07-08T02:41:28.783Z,100872.09
2018-07-08T02:44:36.519Z,100879.16
2018-07-08T02:47:54.875Z,100637.23
2018-07-08T02:51:05.687Z,100883.10
2018-07-08T02:57:27.817Z,100885.91
2018-07-08T03:00:36.176Z,100894.72
2018-07-08T03:03:46.738Z,100896.34
2018-07-08T03:06:54.961Z,100894.67
2018-07-08T03:10:09.645Z,100888.03
2018-07-08T03:13:16.319Z,100884.48
2018-07-08T03:16:23.106Z,100893.44
2018-07-08T03:19:31.478Z,100886.00
2018-07-08T03:22:52.127Z,100881.66
2018-07-08T03:25:58.817Z,100881.28
2018-07-08T03:29:02.928Z,100878.28
2018-07-08T03:32:12.507Z,100880.83
2018-07-08T03:35:19.356Z,100881.47
2018-07-08T03:38:27.696Z,100884.62
2018-07-08T03:41:50.230Z,100884.98
2018-07-08T03:45:09.101Z,100893.53
2018-07-08T03:48:39.632Z,100894.76
2018-07-08T03:51:50.435Z,100893.47
2018-07-08T03:54:57.440Z,100897.26
2018-07-08T03:58:03.053Z,100896.38
2018-07-08T04:01:10.712Z,100895.19
2018-07-08T04:04:30.622Z,100889.11
2018-07-08T04:11:25.617Z,100884.41
2018-07-08T04:14:38.820Z,100892.73
2018-07-08T04:17:45.790Z,100893.95
2018-07-08T04:21:04.653Z,100896.38
2018-07-08T04:24:31.174Z,100899.98
2018-07-08T04:27:42.627Z,100907.92
2018-07-08T04:31:14.106Z,100901.17
2018-07-08T04:34:34.213Z,100904.79
2018-07-08T04:37:58.490Z,100905.30
2018-07-08T04:46:47.528Z,100904.64
2018-07-08T04:50:11.625Z,100915.36
2018-07-08T04:54:27.057Z,100924.36
2018-07-08T04:58:57.759Z,100914.30
2018-07-08T05:02:38.322Z,100920.06
2018-07-08T05:11:53.365Z,100919.88
2018-07-08T05:20:51.198Z,100935.89
2018-07-08T05:29:11.216Z,100932.67
2018-07-08T05:32:48.790Z,100936.70
2018-07-08T05:36:18.814Z,100931.30
2018-07-08T05:43:39.592Z,100681.11
2018-07-08T05:46:53.299Z,100942.36
2018-07-08T05:50:09.761Z,100942.00
2018-07-08T05:57:31.955Z,100939.27
2018-07-08T06:01:43.006Z,100947.39
2018-07-08T06:04:51.531Z,100943.46
2018-07-08T06:08:10.149Z,100945.67
2018-07-08T06:11:40.322Z,100944.73
2018-07-08T06:22:07.912Z,100937.05
2018-07-08T06:25:20.053Z,100938.94
2018-07-08T06:28:44.767Z,100937.09
2018-07-08T06:31:53.502Z,100934.27
2018-07-08T06:38:23.386Z,100947.42
2018-07-08T06:41:32.795Z,100934.92
2018-07-08T06:48:02.035Z,100933.92
2018-07-08T06:51:13.371Z,100927.48
2018-07-08T06:54:24.084Z,100935.69
2018-07-08T06:57:29.433Z,100929.92
2018-07-08T07:00:38.021Z,100934.89
2018-07-08T07:03:41.560Z,100926.09
2018-07-08T07:06:45.178Z,100928.45
2018-07-08T07:09:48.572Z,100936.30
2018-07-08T07:12:51.907Z,100941.55
2018-07-08T07:15:56.176Z,100936.86
2018-07-08T07:18:59.606Z,100934.57
2018-07-08T07:22:03.160Z,100936.42
2018-07-08T07:25:07.233Z,100932.56
2018-07-08T07:28:10.671Z,100935.74
2018-07-08T07:31:14.113Z,100936.16
2018-07-08T07:34:17.527Z,100937.82
2018-07-08T07:37:20.860Z,100937.80
2018-07-08T07:40:24.264Z,100931.28
2018-07-08T07:43:27.657Z,100943.73
2018-07-08T07:46:31.126Z,100944.16
2018-07-08T07:49:34.570Z,100947.25
2018-07-08T07:52:37.928Z,100947.66
2018-07-08T07:55:41.366Z,100938.27
2018-07-08T07:58:44.731Z,100943.00
2018-07-08T08:01:48.043Z,100945.61
2018-07-08T08:04:51.354Z,100939.52
2018-07-08T08:07:54.766Z,100948.05
2018-07-08T08:10:58.237Z,100940.19
2018-07-08T08:14:02.741Z,100942.09
2018-07-08T08:17:06.339Z,100941.00
2018-07-08T08:20:09.785Z,100948.56
2018-07-08T08:23:13.066Z,100938.80
2018-07-08T08:26:16.636Z,100940.02
2018-07-08T08:29:20.084Z,100941.64
2018-07-08T08:32:23.485Z,100940.89
2018-07-08T08:35:26.889Z,100936.24
2018-07-08T08:38:30.278Z,100943.98
2018-07-08T08:41:33.692Z,100940.38
2018-07-08T08:44:38.016Z,100938.86
2018-07-08T08:47:41.447Z,100937.92
2018-07-08T08:50:44.862Z,100940.20
2018-07-08T08:53:48.265Z,100940.45
2018-07-08T08:56:51.700Z,100942.27
2018-07-08T08:59:55.197Z,100941.89
2018-07-08T09:02:58.413Z,100942.19
2018-07-08T09:06:01.841Z,100943.14
2018-07-08T09:09:05.863Z,100944.68
2018-07-08T09:12:09.868Z,100953.09
2018-07-08T09:15:13.107Z,100948.41
2018-07-08T09:18:16.490Z,100944.54
2018-07-08T09:21:19.708Z,100952.52
2018-07-08T09:24:23.587Z,100953.23
2018-07-08T09:27:27.032Z,100959.80
2018-07-08T09:30:30.343Z,100954.17
2018-07-08T09:33:33.666Z,100966.52
2018-07-08T09:36:37.310Z,100966.83
2018-07-08T09:39:40.723Z,100960.92
2018-07-08T09:42:44.130Z,100957.57
2018-07-08T09:45:47.432Z,100955.75
2018-07-08T09:48:50.865Z,100962.69
2018-07-08T09:51:54.268Z,100956.53
2018-07-08T09:54:57.621Z,100957.41
2018-07-08T09:58:01.025Z,100953.39
2018-07-08T10:01:04.465Z,100947.28
2018-07-08T10:04:09.450Z,100944.04
2018-07-08T10:07:12.810Z,100943.02
2018-07-08T10:10:16.123Z,100933.53
2018-07-08T10:13:19.642Z,100935.17
2018-07-08T10:16:23.066Z,100939.86
2018-07-08T10:19:26.456Z,100941.46
2018-07-08T10:22:29.873Z,100942.25
2018-07-08T10:25:33.263Z,100941.56
2018-07-08T10:28:36.668Z,100938.94
2018-07-08T10:31:50.905Z,100935.39
2018-07-08T10:34:54.235Z,100932.51
2018-07-08T10:37:57.571Z,100935.05
2018-07-08T10:41:00.898Z,100932.16
2018-07-08T10:44:04.305Z,100929.58
2018-07-08T10:47:07.695Z,100938.63
2018-07-08T10:50:11.178Z,100933.58
2018-07-08T10:53:14.543Z,100928.78
2018-07-08T10:56:17.972Z,100924.13
2018-07-08T10:59:21.342Z,100921.04
2018-07-08T11:02:24.851Z,100925.36
2018-07-08T11:05:28.314Z,100922.90
2018-07-08T11:08:31.680Z,100922.78
2018-07-08T11:11:35.012Z,100925.18
2018-07-08T11:14:38.434Z,100925.51
2018-07-08T11:17:41.967Z,100926.05
2018-07-08T11:20:45.455Z,100932.88
2018-07-08T11:23:48.797Z,100920.97
2018-07-08T11:26:52.216Z,100916.16
2018-07-08T11:29:55.749Z,100909.74
2018-07-08T11:32:59.179Z,100904.41
2018-07-08T11:36:02.627Z,100903.64
2018-07-08T11:39:06.482Z,100909.83
2018-07-08T11:42:09.907Z,100899.06
2018-07-08T11:45:13.281Z,100899.06
2018-07-08T11:48:16.774Z,100904.03
2018-07-08T11:51:20.241Z,100892.75
2018-07-08T11:54:23.580Z,100892.11
2018-07-08T11:57:26.949Z,100886.30
2018-07-08T12:00:30.372Z,100885.03
2018-07-08T12:03:33.703Z,100882.14
2018-07-08T12:06:37.096Z,100881.29
2018-07-08T12:09:40.558Z,100878.81
2018-07-08T12:12:43.973Z,100876.20
2018-07-08T12:15:47.293Z,100884.34
2018-07-08T12:18:50.568Z,100881.16
2018-07-08T12:21:54.030Z,100876.02
2018-07-08T12:24:57.456Z,100876.40
2018-07-08T12:28:01.779Z,100870.84
2018-07-08T12:31:05.169Z,100868.67
2018-07-08T12:34:08.482Z,100871.20
2018-07-08T12:37:11.803Z,100865.15
2018-07-08T12:40:15.045Z,100861.91
2018-07-08T12:43:18.356Z,100858.64
2018-07-08T12:46:21.613Z,100857.93
2018-07-08T12:49:24.984Z,100855.40
2018-07-08T12:52:28.406Z,100856.44
2018-07-08T12:55:31.615Z,100786.55
2018-07-08T12:58:34.860Z,100848.34
2018-07-08T13:01:38.062Z,100855.25
2018-07-08T13:04:41.293Z,100839.48
2018-07-08T13:07:44.494Z,100839.67
2018-07-08T13:10:47.714Z,100841.17
2018-07-08T13:13:50.960Z,100845.61
2018-07-08T13:16:54.134Z,100840.55
2018-07-08T13:19:57.396Z,100837.31
2018-07-08T13:23:00.588Z,100837.88
2018-07-08T13:26:03.828Z,100846.91
2018-07-08T13:29:07.273Z,100842.08
2018-07-08T13:32:10.538Z,100833.61
2018-07-08T13:35:13.764Z,100835.95
2018-07-08T13:38:16.974Z,100844.63
2018-07-08T13:41:20.214Z,100846.07
2018-07-08T13:44:23.420Z,100835.52
2018-07-08T13:47:26.701Z,100837.84
2018-07-08T13:50:29.895Z,100838.39
2018-07-08T13:53:33.209Z,100838.30
2018-07-08T13:56:36.406Z,100840.89
2018-07-08T13:59:39.673Z,100840.44
2018-07-08T14:02:42.992Z,100832.99
2018-07-08T14:05:46.186Z,100824.64
2018-07-08T14:08:49.400Z,100822.87
2018-07-08T14:11:52.652Z,100823.66
2018-07-08T14:14:55.865Z,100824.70
2018-07-08T14:17:59.099Z,100834.42
2018-07-08T14:21:02.390Z,100827.06
2018-07-08T14:24:05.611Z,100826.20
2018-07-08T14:27:08.829Z,100822.48
2018-07-08T14:30:12.068Z,100806.17
2018-07-08T14:33:15.336Z,100809.89
2018-07-08T14:36:18.800Z,100810.73
2018-07-08T14:39:21.954Z,100804.61
2018-07-08T14:42:25.152Z,100812.02
2018-07-08T14:45:28.432Z,100811.23
2018-07-08T14:48:31.669Z,100804.86
2018-07-08T14:51:34.856Z,100802.39
2018-07-08T14:54:38.193Z,100801.78
2018-07-08T14:57:41.415Z,100827.31
2018-07-08T15:00:44.676Z,100802.05
2018-07-08T15:03:47.860Z,100796.10
2018-07-08T15:06:51.042Z,100794.73
2018-07-08T15:09:54.250Z,100787.52
2018-07-08T15:12:57.604Z,100608.98
2018-07-08T15:16:00.763Z,100775.33
2018-07-08T15:19:04.511Z,100784.65
2018-07-08T15:22:07.804Z,100782.78
2018-07-08T15:25:10.961Z,100784.78
2018-07-08T15:28:14.276Z,100790.66
2018-07-08T15:31:18.225Z,100784.29
2018-07-08T15:34:21.457Z,100785.06
2018-07-08T15:37:24.783Z,100774.36
2018-07-08T15:40:28.037Z,100785.06
2018-07-08T15:43:32.087Z,100781.24
2018-07-08T15:46:35.400Z,100786.80
2018-07-08T15:49:38.727Z,100779.25
2018-07-08T15:52:42.527Z,100777.02
2018-07-08T15:55:45.880Z,100781.34
2018-07-08T15:58:49.179Z,100773.13
2018-07-08T16:01:52.404Z,100772.41
2018-07-08T16:04:55.826Z,100773.55
2018-07-08T16:07:59.584Z,100773.44
2018-07-08T16:11:02.964Z,100767.08
2018-07-08T16:14:06.224Z,100762.73
2018-07-08T16:17:09.494Z,100756.49
2018-07-08T16:20:12.749Z,100755.22
2018-07-08T16:23:16.007Z,100757.64
2018-07-08T16:26:19.265Z,100755.27
2018-07-08T16:29:22.597Z,100758.61
2018-07-08T16:32:25.808Z,100760.95
2018-07-08T16:35:29.121Z,100745.75
2018-07-08T16:38:32.385Z,100759.73
2018-07-08T16:41:35.634Z,100748.41
2018-07-08T16:44:38.915Z,100751.31
2018-07-08T16:47:42.601Z,100742.13
2018-07-08T16:50:46.428Z,100743.77
2018-07-08T16:53:49.853Z,100743.09
2018-07-08T16:56:53.140Z,100750.34
2018-07-08T16:59:56.343Z,100747.30
2018-07-08T17:02:59.711Z,100750.02
2018-07-08T17:06:03.006Z,100745.30
2018-07-08T17:09:08.820Z,100750.20
2018-07-08T17:12:12.064Z,100750.05
2018-07-08T17:15:15.338Z,100746.55
2018-07-08T17:18:18.643Z,100749.03
2018-07-08T17:21:21.922Z,100748.19
2018-07-08T17:24:25.077Z,100745.02
2018-07-08T17:27:28.473Z,100751.81
2018-07-08T17:30:31.846Z,100747.60
2018-07-08T17:33:35.162Z,100742.58
2018-07-08T17:36:39.643Z,100745.51
2018-07-08T17:39:43.052Z,100741.06
2018-07-08T17:42:46.510Z,100749.70
2018-07-08T17:45:49.848Z,100745.89
2018-07-08T17:48:56.168Z,100744.52
2018-07-08T17:51:59.426Z,100738.95
2018-07-08T17:55:03.398Z,100733.78
2018-07-08T17:58:06.569Z,100740.59
2018-07-08T18:01:09.794Z,100733.16
2018-07-08T18:04:13.005Z,100740.70
2018-07-08T18:07:16.277Z,100740.20
2018-07-08T18:10:19.542Z,100738.84
2018-07-08T18:13:22.739Z,100741.95
2018-07-08T18:16:25.899Z,100748.75
2018-07-08T18:19:29.179Z,100741.47
2018-07-08T18:22:32.378Z,100729.84
2018-07-08T18:25:35.554Z,100736.14
2018-07-08T18:28:38.797Z,100736.75
2018-07-08T18:31:42.013Z,100736.75
2018-07-08T18:34:45.265Z,100733.42
2018-07-08T18:37:48.462Z,100737.23
2018-07-08T18:40:51.732Z,100733.60
2018-07-08T18:43:55.823Z,100736.25
2018-07-08T18:46:58.972Z,100735.26
2018-07-08T18:50:02.386Z,100729.08
2018-07-08T18:53:05.587Z,100732.02
2018-07-08T18:56:08.767Z,100731.73
2018-07-08T18:59:12.063Z,100726.08
2018-07-08T19:02:15.281Z,100729.52
2018-07-08T19:05:18.534Z,100736.30
2018-07-08T19:08:21.805Z,100733.95
2018-07-08T19:11:25.080Z,100732.84
2018-07-08T19:14:28.355Z,100733.44
2018-07-08T19:17:31.614Z,100736.11
2018-07-08T19:20:34.964Z,100730.67
2018-07-08T19:23:38.266Z,100733.14
2018-07-08T19:26:41.529Z,100740.02
2018-07-08T19:29:44.837Z,100745.50
2018-07-08T19:32:48.178Z,100745.84
2018-07-08T19:35:51.488Z,100751.94
2018-07-08T19:38:55.285Z,100752.86
2018-07-08T19:41:59.033Z,100751.19
2018-07-08T19:45:03.117Z,100749.17
2018-07-08T19:48:06.710Z,100753.80
2018-07-08T19:51:10.542Z,100757.70
2018-07-08T19:54:14.045Z,100758.00
2018-07-08T19:57:17.722Z,100756.20
2018-07-08T20:00:21.298Z,100754.56
2018-07-08T20:03:24.751Z,100759.89
2018-07-08T20:06:28.367Z,100764.80
2018-07-08T20:09:32.597Z,100768.56
2018-07-08T20:12:36.229Z,100770.02
2018-07-08T20:15:39.860Z,100771.52
2018-07-08T20:18:43.398Z,100768.54
2018-07-08T20:21:47.085Z,100774.06
2018-07-08T20:24:51.132Z,100781.84
2018-07-08T20:27:54.955Z,100779.13
2018-07-08T20:30:58.497Z,100782.89
2018-07-08T20:34:02.013Z,100779.87
2018-07-08T20:37:05.656Z,100784.53
2018-07-08T20:40:09.174Z,100781.83
2018-07-08T20:43:12.804Z,100781.45
2018-07-08T20:46:16.283Z,100786.10
2018-07-08T20:49:19.811Z,100786.49
2018-07-08T20:52:23.474Z,100788.47
2018-07-08T20:55:27.138Z,100793.52
2018-07-08T20:58:30.743Z,100791.49
2018-07-08T21:01:34.442Z,100792.27
2018-07-08T21:04:38.038Z,100786.69
2018-07-08T21:07:42.347Z,100792.26
2018-07-08T21:10:45.869Z,100797.65
2018-07-08T21:13:49.386Z,100796.59
2018-07-08T21:16:52.892Z,100801.98
2018-07-08T21:19:56.653Z,100800.05
2018-07-08T21:23:00.403Z,100808.73
2018-07-08T21:26:04.169Z,100810.95
2018-07-08T21:29:07.759Z,100806.98
2018-07-08T21:32:11.976Z,100807.42
2018-07-08T21:35:15.590Z,100804.78
2018-07-08T21:38:19.218Z,100808.75
2018-07-08T21:41:22.569Z,100810.91
2018-07-08T21:44:26.308Z,100814.09
2018-07-08T21:47:30.847Z,100813.09
2018-07-08T21:50:34.415Z,100812.14
2018-07-08T21:53:38.022Z,100809.33
2018-07-08T21:56:41.602Z,100814.89
2018-07-08T21:59:46.084Z,100820.12
2018-07-08T22:02:49.688Z,100818.57
2018-07-08T22:05:53.423Z,100824.28
2018-07-08T22:08:57.049Z,100816.61
2018-07-08T22:12:00.447Z,100816.05
2018-07-08T22:15:04.001Z,100822.36
2018-07-08T22:18:07.651Z,100825.77
2018-07-08T22:21:11.324Z,100814.94
2018-07-08T22:24:15.979Z,100818.69
2018-07-08T22:27:19.727Z,100820.91
2018-07-08T22:30:23.430Z,100820.25
2018-07-08T22:33:27.200Z,100820.78
2018-07-08T22:36:32.477Z,100830.16
2018-07-08T22:39:37.200Z,100830.16
2018-07-08T22:42:40.997Z,100827.14
2018-07-08T22:45:45.362Z,100828.86
2018-07-08T22:48:49.160Z,100824.56
2018-07-08T22:51:53.077Z,100821.61
2018-07-08T22:54:57.596Z,100821.33
2018-07-08T22:58:01.236Z,100827.45
2018-07-08T23:01:21.969Z,100817.94
2018-07-08T23:04:32.073Z,100824.81
2018-07-08T23:07:43.908Z,100830.47
2018-07-08T23:10:49.036Z,100831.01
2018-07-08T23:13:54.988Z,100834.03
2018-07-08T23:17:04.115Z,100834.15
2018-07-08T23:20:08.912Z,100829.31
2018-07-08T23:23:15.302Z,100828.55
2018-07-08T23:26:24.703Z,100827.27
2018-07-08T23:29:31.804Z,100835.79
2018-07-08T23:32:38.017Z,100840.66
2018-07-08T23:35:43.123Z,100834.40
2018-07-08T23:38:49.483Z,100835.02
2018-07-08T23:41:58.992Z,100836.61
2018-07-08T23:45:08.007Z,100839.95
2018-07-08T23:48:19.133Z,100841.05
2018-07-08T23:51:23.843Z,100837.09
2018-07-08T23:54:29.408Z,100829.98
2018-07-08T23:57:36.362Z,100837.59
